createdAt,value
2023-04-14T05:07:30.400Z,99.90
2023-04-14T05:12:32.200Z,99.90
2023-04-14T05:17:34.318Z,99.90
2023-04-14T05:22:36.095Z,99.90
2023-04-14T05:27:37.912Z,99.90
2023-04-14T05:32:39.738Z,99.90
2023-04-14T05:37:41.733Z,99.90
2023-04-14T05:42:43.634Z,99.90
2023-04-14T05:47:46.912Z,99.90
2023-04-14T05:52:50.740Z,99.90
2023-04-14T05:57:52.696Z,99.90
2023-04-14T06:02:54.765Z,99.90
2023-04-14T06:07:56.750Z,99.90
2023-04-14T06:12:58.706Z,99.90
2023-04-14T06:18:00.811Z,99.90
2023-04-14T06:23:02.712Z,99.90
2023-04-14T06:28:04.701Z,99.90
2023-04-14T06:33:07.415Z,99.90
2023-04-14T06:38:09.267Z,99.90
2023-04-14T06:43:11.440Z,99.90
2023-04-14T06:48:13.918Z,99.90
2023-04-14T06:53:15.942Z,99.90
2023-04-14T06:58:18.562Z,99.90
2023-04-14T07:03:20.550Z,99.90
2023-04-14T07:08:22.471Z,99.90
2023-04-14T07:13:24.343Z,99.90
2023-04-14T07:18:26.217Z,99.90
2023-04-14T07:23:28.760Z,99.90
2023-04-14T07:28:30.559Z,99.90
2023-04-14T07:33:32.364Z,99.90
2023-04-14T07:38:34.258Z,99.90
2023-04-14T07:43:36.289Z,99.90
2023-04-14T07:48:38.476Z,99.90
2023-04-14T07:53:43.311Z,99.90
2023-04-14T07:58:45.153Z,99.90
2023-04-14T08:03:47.102Z,99.90
2023-04-14T08:08:49.133Z,99.90
2023-04-14T08:13:52.915Z,99.90
2023-04-14T08:18:57.250Z,99.90
2023-04-14T08:23:59.916Z,99.90
2023-04-14T08:29:02.311Z,99.90
2023-04-14T08:34:04.411Z,99.90
2023-04-14T08:39:06.283Z,99.90
2023-04-14T08:44:08.544Z,99.90
2023-04-14T08:49:12.936Z,99.90
2023-04-14T08:54:15.608Z,99.90
2023-04-14T08:59:17.531Z,99.90
2023-04-14T09:04:20.568Z,99.90
2023-04-14T09:09:22.861Z,99.90
2023-04-14T09:14:24.748Z,99.90
2023-04-14T09:19:27.241Z,99.90
2023-04-14T09:24:32.020Z,99.90
2023-04-14T09:29:35.044Z,99.90
2023-04-14T09:34:36.827Z,99.90
2023-04-14T09:39:51.667Z,99.90
2023-04-14T09:44:57.793Z,99.90
2023-04-14T09:50:03.210Z,99.90
2023-04-14T09:55:08.251Z,99.90
2023-04-14T10:00:16.177Z,99.90
2023-04-14T10:05:21.613Z,99.90
2023-04-14T10:10:23.745Z,99.50
2023-04-14T10:15:25.713Z,99.70
2023-04-14T10:20:28.042Z,99.90
2023-04-14T10:25:32.862Z,99.90
2023-04-14T10:30:34.693Z,95.30
2023-04-14T10:35:42.012Z,98.30
2023-04-14T10:40:51.545Z,93.70
2023-04-14T10:45:57.544Z,94.40
2023-04-14T10:51:00.101Z,94.50
2023-04-14T10:56:03.707Z,93.30
2023-04-14T11:01:26.161Z,91.20
2023-04-14T11:06:46.973Z,84.00
2023-04-14T11:11:48.780Z,82.80
2023-04-14T11:17:02.676Z,85.60
2023-04-14T11:22:06.193Z,86.70
2023-04-14T11:27:12.895Z,80.60
2023-04-14T11:32:15.053Z,81.50
2023-04-14T11:37:16.965Z,75.10
2023-04-14T11:42:19.348Z,78.60
2023-04-14T11:47:22.303Z,72.70
2023-04-14T11:52:24.228Z,76.30
2023-04-14T11:57:26.456Z,73.60
2023-04-14T12:02:28.848Z,71.10
2023-04-14T12:07:31.195Z,67.50
2023-04-14T12:12:33.435Z,90.70
2023-04-14T12:17:35.599Z,73.20
2023-04-14T12:22:37.558Z,64.90
2023-04-14T12:27:41.365Z,82.70
2023-04-14T12:32:44.292Z,73.00
2023-04-14T12:37:50.229Z,59.20
2023-04-14T12:42:52.438Z,61.40
2023-04-14T12:47:55.537Z,61.40
2023-04-14T12:52:57.433Z,60.40
2023-04-14T12:57:59.743Z,63.30
2023-04-14T13:03:01.808Z,60.40
2023-04-14T13:08:03.967Z,61.50
2023-04-14T13:13:05.941Z,63.40
2023-04-14T13:18:08.099Z,63.00
2023-04-14T13:23:09.957Z,59.90
2023-04-14T13:28:11.770Z,60.00
2023-04-14T13:33:13.586Z,56.10
2023-04-14T13:38:15.520Z,56.00
2023-04-14T13:43:18.945Z,56.10
2023-04-14T13:48:21.030Z,56.70
2023-04-14T13:53:25.273Z,56.00
2023-04-14T13:58:27.519Z,60.50
2023-04-14T14:03:30.812Z,56.30
2023-04-14T14:08:37.913Z,59.10
2023-04-14T14:13:39.885Z,56.70
2023-04-14T14:18:41.787Z,52.50
2023-04-14T14:23:43.700Z,56.20
2023-04-14T14:28:47.628Z,52.20
2023-04-14T14:33:49.585Z,50.20
2023-04-14T14:38:51.457Z,49.70
2023-04-14T14:43:53.252Z,52.50
2023-04-14T14:48:55.055Z,45.90
2023-04-14T14:54:08.832Z,44.70
2023-04-14T14:59:11.614Z,48.20
2023-04-14T15:04:13.632Z,48.00
2023-04-14T15:09:15.857Z,48.80
2023-04-14T15:14:17.692Z,51.00
2023-04-14T15:19:19.580Z,53.20
2023-04-14T15:24:21.468Z,51.10
2023-04-14T15:29:26.796Z,51.70
2023-04-14T15:34:28.734Z,50.30
2023-04-14T15:39:30.607Z,49.40
2023-04-14T15:44:32.450Z,51.00
2023-04-14T15:49:34.335Z,52.90
2023-04-14T15:54:36.272Z,52.70
2023-04-14T15:59:38.339Z,50.80
2023-04-14T16:04:40.638Z,50.60
2023-04-14T16:09:42.562Z,48.80
2023-04-14T16:14:44.419Z,51.70
2023-04-14T16:19:46.454Z,47.90
2023-04-14T16:24:48.291Z,48.10
2023-04-14T16:29:50.156Z,47.60
2023-04-14T16:34:52.115Z,47.90
2023-04-14T16:39:57.204Z,48.20
2023-04-14T16:44:59.025Z,50.80
2023-04-14T16:50:00.904Z,48.70
2023-04-14T16:55:03.248Z,51.70
2023-04-14T17:00:06.732Z,51.30
2023-04-14T17:05:11.169Z,52.30
2023-04-14T17:10:13.533Z,53.10
2023-04-14T17:15:15.399Z,51.70
2023-04-14T17:20:17.452Z,51.70
2023-04-14T17:25:22.452Z,56.00
2023-04-14T17:30:24.684Z,55.20
2023-04-14T17:35:27.148Z,56.70
2023-04-14T17:40:29.140Z,55.50
2023-04-14T17:45:31.624Z,55.10
2023-04-14T17:50:34.305Z,54.40
2023-04-14T17:55:37.450Z,54.40
2023-04-14T18:00:40.086Z,56.00
2023-04-14T18:05:42.473Z,54.90
2023-04-14T18:10:45.882Z,56.50
2023-04-14T18:15:49.609Z,58.70
2023-04-14T18:20:52.147Z,59.70
2023-04-14T18:31:06.276Z,61.20
2023-04-14T18:36:08.311Z,61.20
2023-04-14T18:41:10.441Z,62.70
2023-04-14T18:46:12.480Z,64.80
2023-04-14T18:51:15.670Z,63.70
2023-04-14T19:01:53.194Z,67.00
2023-04-14T19:14:55.113Z,67.90
2023-04-14T19:20:42.758Z,67.40
2023-04-14T19:31:33.145Z,69.80
2023-04-14T19:49:03.530Z,74.10
2023-04-14T19:54:28.827Z,76.20
2023-04-14T20:20:31.967Z,76.80
2023-04-14T20:26:14.761Z,77.90
2023-04-14T20:37:48.165Z,81.00
2023-04-14T20:47:56.992Z,86.90
2023-04-14T20:53:21.726Z,86.90
2023-04-14T20:58:43.913Z,86.40
2023-04-14T21:04:10.226Z,86.30
2023-04-14T21:09:43.255Z,87.20
2023-04-14T21:15:47.362Z,89.20
2023-04-14T21:20:42.225Z,90.60
2023-04-14T21:26:14.612Z,91.10
2023-04-14T21:43:31.195Z,90.70
2023-04-14T21:49:07.715Z,91.30
2023-04-14T21:54:43.478Z,90.10
2023-04-14T22:00:46.577Z,90.00
2023-04-14T22:11:57.945Z,90.50
2023-04-14T22:17:35.874Z,90.50
2023-04-14T22:22:45.601Z,90.80
2023-04-14T22:27:53.643Z,91.00
2023-04-14T22:38:37.778Z,91.70
2023-04-14T22:43:59.726Z,92.40
2023-04-14T22:49:21.832Z,92.30
2023-04-14T22:54:45.570Z,92.50
2023-04-14T22:59:58.594Z,92.50
2023-04-14T23:05:12.840Z,92.50
2023-04-14T23:10:36.704Z,92.90
2023-04-14T23:16:35.695Z,93.00
2023-04-14T23:21:17.953Z,93.40
2023-04-14T23:26:59.806Z,93.80
2023-04-14T23:32:37.258Z,93.80
2023-04-14T23:37:47.184Z,94.10
2023-04-14T23:43:18.589Z,94.30
2023-04-14T23:49:23.712Z,94.50
2023-04-14T23:54:13.659Z,94.90
